Time;durP1;ratioP1;P1;durP2;ratioP2;P2;SDS_P1;SDS_P2;PMS_P1;PMS_P2;Temp;Humidity;BMP_temperature;BMP_pressure;BME280_temperature;BME280_humidity;BME280_pressure;Samples;Min_cycle;Max_cycle;Signal;HPM_P1;HPM_P2
2022/07/24 00:00:35;;;;;;;8.45;7.85;;;;;;;24.62;64.67;95970.72;4899715;29;20317;-84
2022/07/24 00:03:02;;;;;;;8.25;7.55;;;;;;;24.58;64.74;95969.63;4899420;29;20324;-84
2022/07/24 00:05:28;;;;;;;8.80;8.10;;;;;;;24.56;65.00;95972.53;4900154;29;20199;-85
2022/07/24 00:07:55;;;;;;;8.82;7.90;;;;;;;24.57;64.85;95974.09;4899818;29;20203;-85
2022/07/24 00:10:21;;;;;;;8.65;7.85;;;;;;;24.63;64.72;95972.31;4898385;29;20242;-85
2022/07/24 00:12:48;;;;;;;8.82;8.15;;;;;;;24.64;64.59;95976.50;4898990;29;20278;-84
2022/07/24 00:15:15;;;;;;;8.80;8.18;;;;;;;24.64;64.93;95979.13;4899791;29;20207;-85
2022/07/24 00:17:42;;;;;;;8.35;7.75;;;;;;;24.61;65.00;95977.81;4900498;29;20614;-84
2022/07/24 00:20:10;;;;;;;9.02;8.32;;;;;;;24.68;64.54;95980.22;4900175;29;20213;-84
2022/07/24 00:22:37;;;;;;;8.55;7.95;;;;;;;24.71;64.76;95979.69;4899738;29;20227;-84
2022/07/24 00:25:04;;;;;;;9.13;8.25;;;;;;;24.73;64.94;95970.50;4900667;29;20218;-85
2022/07/24 00:27:31;;;;;;;8.50;7.82;;;;;;;24.61;65.33;95963.88;4900142;29;20286;-85
2022/07/24 00:29:57;;;;;;;9.02;8.32;;;;;;;24.38;66.66;95955.31;4899632;29;20211;-84
2022/07/24 00:32:25;;;;;;;9.43;8.65;;;;;;;24.28;67.56;95962.31;4898921;29;20234;-85
2022/07/24 00:34:51;;;;;;;8.75;8.15;;;;;;;24.22;66.58;95961.50;4899958;29;20210;-84
2022/07/24 00:37:18;;;;;;;8.43;7.82;;;;;;;24.23;67.04;95959.66;4899880;29;20229;-84
2022/07/24 00:39:45;;;;;;;9.10;8.30;;;;;;;24.27;67.67;95966.78;4900479;29;20221;-86
2022/07/24 00:42:12;;;;;;;8.90;7.78;;;;;;;24.34;67.13;95972.66;4899247;29;20222;-84
2022/07/24 00:44:38;;;;;;;8.27;7.68;;;;;;;24.43;66.38;95965.06;4899426;29;20231;-84
2022/07/24 00:47:05;;;;;;;7.97;7.38;;;;;;;24.40;67.05;95970.84;4899650;29;20791;-84
2022/07/24 00:49:33;;;;;;;8.65;7.95;;;;;;;24.47;66.12;95974.03;4899385;29;20207;-85
2022/07/24 00:51:59;;;;;;;8.50;7.70;;;;;;;24.51;66.18;95963.78;4899274;29;20602;-84
2022/07/24 00:54:26;;;;;;;9.20;8.40;;;;;;;24.53;65.77;95967.75;4899516;29;20242;-85
2022/07/24 00:56:54;;;;;;;8.85;8.05;;;;;;;24.56;65.47;95974.34;4899368;29;20818;-85
2022/07/24 00:59:21;;;;;;;8.32;7.53;;;;;;;24.56;65.48;95975.16;4899204;29;20578;-85
2022/07/24 01:01:48;;;;;;;8.98;8.27;;;;;;;24.57;65.03;95970.69;4898739;29;20234;-84
2022/07/24 01:04:15;;;;;;;8.70;8.00;;;;;;;24.58;64.41;95977.53;4897905;29;20241;-84
2022/07/24 01:06:43;;;;;;;9.15;8.45;;;;;;;24.58;64.40;95973.06;4899360;29;20213;-85
2022/07/24 01:09:10;;;;;;;8.95;8.27;;;;;;;24.60;64.37;95970.16;4899056;29;20293;-85
2022/07/24 01:11:37;;;;;;;8.55;7.90;;;;;;;24.62;63.85;95968.09;4897951;29;20239;-84
2022/07/24 01:14:04;;;;;;;8.80;8.10;;;;;;;24.54;63.86;95971.19;4897926;29;20230;-85
2022/07/24 01:16:31;;;;;;;8.18;7.57;;;;;;;24.58;63.63;95967.00;4898537;29;20230;-85
2022/07/24 01:18:57;;;;;;;8.40;7.65;;;;;;;24.59;63.57;95958.84;4897843;29;20203;-85
2022/07/24 01:21:26;;;;;;;8.38;7.68;;;;;;;24.61;63.73;95969.13;4897177;29;20753;-85
2022/07/24 01:23:52;;;;;;;7.75;7.15;;;;;;;24.62;63.42;95973.34;4897744;29;20246;-84
2022/07/24 01:26:19;;;;;;;8.65;7.97;;;;;;;24.56;63.56;95969.09;4898191;29;20234;-85
2022/07/24 01:28:46;;;;;;;8.68;7.97;;;;;;;24.54;63.79;95964.06;4897565;29;20203;-84
2022/07/24 01:31:13;;;;;;;8.40;7.70;;;;;;;24.51;64.30;95961.16;4897930;29;20231;-85
2022/07/24 01:33:40;;;;;;;8.38;7.78;;;;;;;24.51;64.31;95969.84;4897497;29;20294;-84
2022/07/24 01:36:07;;;;;;;8.13;7.40;;;;;;;24.51;63.58;95961.16;4898177;29;20227;-84
2022/07/24 01:38:35;;;;;;;8.15;7.55;;;;;;;24.42;64.06;95956.38;4897812;29;20203;-84
2022/07/24 01:41:02;;;;;;;8.15;7.55;;;;;;;24.43;64.43;95957.19;4898327;29;20227;-84
2022/07/24 01:43:28;;;;;;;7.95;7.35;;;;;;;24.44;64.30;95954.25;4897552;29;20230;-84
2022/07/24 01:45:55;;;;;;;8.05;7.38;;;;;;;24.41;64.69;95954.00;4898624;29;20205;-85
2022/07/24 01:48:24;;;;;;;9.07;8.27;;;;;;;24.35;64.81;95953.19;4898359;29;20203;-84
2022/07/24 01:50:53;;;;;;;8.07;7.47;;;;;;;24.39;64.67;95956.09;4897727;29;20226;-84
2022/07/24 01:53:19;;;;;;;7.82;7.22;;;;;;;24.39;64.64;95958.72;4897602;29;20246;-85
2022/07/24 01:55:49;;;;;;;8.43;7.63;;;;;;;24.42;64.49;95958.22;4898485;29;20195;-84
2022/07/24 01:58:16;;;;;;;8.25;7.63;;;;;;;24.48;64.51;95951.13;4898025;29;20206;-84
2022/07/24 02:00:42;;;;;;;8.27;7.68;;;;;;;24.48;64.34;95949.28;4896805;29;20246;-84
2022/07/24 02:03:09;;;;;;;8.73;7.90;;;;;;;24.49;64.33;95955.34;4896432;29;20235;-85
2022/07/24 02:05:37;;;;;;;8.00;7.40;;;;;;;24.34;65.19;95956.84;4898159;29;20203;-85
2022/07/24 02:08:04;;;;;;;8.60;7.90;;;;;;;24.28;65.80;95960.50;4898267;29;20885;-84
2022/07/24 02:10:31;;;;;;;7.72;7.13;;;;;;;24.27;65.51;95955.47;4896655;29;20231;-85
2022/07/24 02:12:59;;;;;;;7.93;7.32;;;;;;;24.28;65.27;95952.59;4897003;29;20238;-85
2022/07/24 02:15:26;;;;;;;8.43;7.72;;;;;;;24.32;64.58;95947.63;4897349;29;20560;-85
2022/07/24 02:17:56;;;;;;;8.25;7.55;;;;;;;24.19;64.44;95943.56;4897068;29;20229;-85
2022/07/24 02:20:23;;;;;;;7.97;7.28;;;;;;;24.07;65.24;95943.72;4896617;29;20246;-84
2022/07/24 02:22:49;;;;;;;7.82;7.22;;;;;;;24.07;65.45;95938.47;4897039;29;20676;-84
2022/07/24 02:25:16;;;;;;;7.88;7.22;;;;;;;24.14;65.16;95942.72;4897806;29;20586;-84
2022/07/24 02:27:42;;;;;;;8.25;7.45;;;;;;;24.15;65.03;95939.84;4896549;29;20282;-85
2022/07/24 02:30:13;;;;;;;8.07;7.47;;;;;;;24.06;65.88;95938.72;4896905;29;20218;-85
2022/07/24 02:32:39;;;;;;;7.97;7.40;;;;;;;24.07;65.64;95946.38;4895981;29;20231;-85
2022/07/24 02:35:07;;;;;;;7.97;7.25;;;;;;;24.12;65.51;95945.63;4899985;29;20206;-85
2022/07/24 02:37:35;;;;;;;8.57;7.75;;;;;;;24.13;65.47;95941.16;4900086;29;20223;-84
2022/07/24 02:40:02;;;;;;;8.68;7.75;;;;;;;24.02;66.00;95942.94;4900317;29;20579;-84
2022/07/24 02:42:28;;;;;;;8.48;7.75;;;;;;;23.94;66.80;95941.53;4899226;29;20200;-84
2022/07/24 02:44:55;;;;;;;7.95;7.35;;;;;;;23.97;66.58;95943.66;4900006;29;20211;-84
2022/07/24 02:47:22;;;;;;;8.15;7.45;;;;;;;23.96;66.46;95949.19;4899875;29;20574;-85
2022/07/24 02:49:49;;;;;;;8.05;7.35;;;;;;;23.97;66.54;95953.41;4899858;29;20213;-85
2022/07/24 02:52:15;;;;;;;8.43;7.78;;;;;;;24.00;66.19;95956.31;4880513;29;20239;-84
2022/07/24 02:54:42;;;;;;;8.30;7.65;;;;;;;23.95;66.38;95955.50;4882020;29;20215;-85
2022/07/24 02:57:08;;;;;;;8.20;7.50;;;;;;;23.88;66.38;95947.78;4898780;29;20226;-84
2022/07/24 02:59:35;;;;;;;8.60;7.90;;;;;;;23.89;66.48;95946.75;4900261;29;20207;-85
2022/07/24 03:02:01;;;;;;;8.45;7.85;;;;;;;23.92;66.66;95943.63;4898668;29;20235;-84
2022/07/24 03:04:29;;;;;;;7.90;7.30;;;;;;;23.92;66.63;95948.09;4899341;29;20231;-84
2022/07/24 03:06:56;;;;;;;8.80;8.02;;;;;;;23.92;66.46;95950.72;4899530;29;20199;-84
2022/07/24 03:09:22;;;;;;;9.15;8.40;;;;;;;23.90;66.56;95958.88;4899628;29;20234;-85
2022/07/24 03:11:49;;;;;;;8.52;7.80;;;;;;;23.87;66.86;95948.84;4899358;29;20239;-84
2022/07/24 03:14:17;;;;;;;8.95;8.25;;;;;;;23.81;66.98;95955.13;4898958;29;20231;-84
2022/07/24 03:16:43;;;;;;;8.93;8.23;;;;;;;23.80;67.31;95956.16;4899609;29;20222;-84
2022/07/24 03:19:09;;;;;;;8.43;7.82;;;;;;;23.79;67.26;95951.94;4899708;29;20209;-85
2022/07/24 03:21:37;;;;;;;8.90;8.02;;;;;;;23.79;67.31;95948.53;4899404;29;20241;-84
2022/07/24 03:24:04;;;;;;;9.10;8.40;;;;;;;23.71;67.60;95950.56;4898976;29;20241;-84
2022/07/24 03:26:31;;;;;;;9.20;8.50;;;;;;;23.68;67.66;95953.69;4899408;29;20203;-85
2022/07/24 03:28:57;;;;;;;8.88;8.10;;;;;;;23.63;68.15;95944.97;4899314;29;20207;-84
2022/07/24 03:31:24;;;;;;;9.10;8.30;;;;;;;23.63;68.54;95948.41;4901735;29;20219;-84
2022/07/24 03:33:50;;;;;;;9.13;8.43;;;;;;;23.65;67.99;95945.53;4903031;29;20233;-85
2022/07/24 03:36:16;;;;;;;8.98;8.27;;;;;;;23.66;68.04;95953.16;4904701;29;20632;-84
2022/07/24 03:38:44;;;;;;;8.85;8.15;;;;;;;23.60;68.47;95953.34;4903186;29;20210;-83
2022/07/24 03:41:11;;;;;;;8.95;8.25;;;;;;;23.61;68.29;95950.47;4903030;29;20230;-84
2022/07/24 03:43:37;;;;;;;8.95;8.35;;;;;;;23.65;68.69;95948.94;4902240;29;20257;-82
2022/07/24 03:46:04;;;;;;;8.65;8.00;;;;;;;23.72;68.49;95951.34;4903366;29;20207;-83
2022/07/24 03:48:30;;;;;;;9.38;8.43;;;;;;;23.80;68.19;95952.75;4903125;29;20207;-84
2022/07/24 03:50:57;;;;;;;8.80;8.18;;;;;;;23.86;68.03;95947.25;4902969;29;20223;-83
2022/07/24 03:53:23;;;;;;;8.80;8.10;;;;;;;23.85;68.07;95944.91;4901917;29;20234;-84
2022/07/24 03:55:51;;;;;;;9.00;8.20;;;;;;;23.85;68.19;95952.78;4903292;29;20207;-83
2022/07/24 03:58:17;;;;;;;9.02;8.32;;;;;;;23.85;67.87;95958.84;4902382;29;20227;-84
2022/07/24 04:00:44;;;;;;;9.52;8.63;;;;;;;23.82;68.04;95955.91;4901578;29;20227;-84
2022/07/24 04:03:10;;;;;;;8.60;8.00;;;;;;;23.76;68.26;95965.59;4901322;29;20233;-84
2022/07/24 04:05:36;;;;;;;8.77;7.97;;;;;;;23.81;68.04;95970.09;4903734;29;20203;-83
2022/07/24 04:08:03;;;;;;;9.15;8.27;;;;;;;23.71;68.27;95973.44;4903252;29;20203;-84
2022/07/24 04:10:30;;;;;;;8.52;7.93;;;;;;;23.69;68.49;95975.50;4901837;29;20229;-83
2022/07/24 04:12:57;;;;;;;9.23;8.52;;;;;;;23.68;68.20;95976.56;4901726;29;20235;-83
2022/07/24 04:15:24;;;;;;;9.25;8.57;;;;;;;23.58;68.27;95979.88;4903271;29;20207;-84
2022/07/24 04:17:50;;;;;;;9.02;8.23;;;;;;;23.54;68.91;95970.13;4902157;29;20234;-82
2022/07/24 04:20:17;;;;;;;8.45;7.78;;;;;;;23.62;69.08;95981.00;4901842;29;20220;-82
2022/07/24 04:22:43;;;;;;;9.32;8.63;;;;;;;23.60;68.92;95980.44;4901803;29;20236;-83
2022/07/24 04:25:10;;;;;;;9.82;9.00;;;;;;;23.58;68.97;95990.41;4902112;29;20226;-83
2022/07/24 04:27:36;;;;;;;9.00;8.32;;;;;;;23.57;69.08;95991.44;4902209;29;20215;-83
2022/07/24 04:30:05;;;;;;;9.65;8.95;;;;;;;23.54;69.16;95986.69;4901993;29;20206;-82
2022/07/24 04:32:31;;;;;;;9.68;8.85;;;;;;;23.44;69.37;95981.31;4900873;29;20199;-83
2022/07/24 04:34:58;;;;;;;9.95;9.15;;;;;;;23.36;69.95;95976.47;4901150;29;20199;-84
2022/07/24 04:37:24;;;;;;;9.60;8.70;;;;;;;23.41;69.88;95982.59;4899751;29;20253;-84
2022/07/24 04:39:51;;;;;;;9.77;8.88;;;;;;;23.54;70.04;95989.31;4898419;29;20214;-83
2022/07/24 04:42:17;;;;;;;10.02;9.10;;;;;;;23.59;70.18;95981.47;4897682;29;20233;-83
2022/07/24 04:44:43;;;;;;;10.07;9.27;;;;;;;23.71;69.44;95983.94;4898496;29;20574;-83
2022/07/24 04:47:11;;;;;;;10.35;9.45;;;;;;;23.71;69.23;95984.75;4898399;29;20206;-83
2022/07/24 04:49:38;;;;;;;10.73;9.73;;;;;;;23.69;69.37;95988.66;4899522;29;20202;-83
2022/07/24 04:52:05;;;;;;;10.65;9.75;;;;;;;23.56;70.31;95992.50;4898280;29;20249;-83
2022/07/24 04:54:31;;;;;;;10.27;9.35;;;;;;;23.67;69.82;95983.66;4897778;28;20223;-83
2022/07/24 04:56:58;;;;;;;10.20;9.48;;;;;;;23.76;69.88;95990.06;4898514;29;20250;-83
2022/07/24 04:59:24;;;;;;;10.32;9.32;;;;;;;23.90;69.53;95993.06;4897886;29;20206;-84
2022/07/24 05:01:51;;;;;;;9.57;8.77;;;;;;;23.96;69.66;95999.16;4895949;29;20235;-83
2022/07/24 05:04:18;;;;;;;11.05;10.10;;;;;;;23.99;69.46;96001.31;4896193;29;20231;-84
2022/07/24 05:06:46;;;;;;;11.02;10.02;;;;;;;23.92;69.58;96006.75;4896956;29;20246;-83
2022/07/24 05:09:13;;;;;;;10.70;9.88;;;;;;;23.97;69.32;96001.56;4897206;29;20210;-84
2022/07/24 05:11:39;;;;;;;11.30;10.40;;;;;;;23.99;69.28;96007.34;4896114;29;20786;-83
2022/07/24 05:14:06;;;;;;;11.25;10.32;;;;;;;24.00;69.09;96014.19;4896238;29;20234;-83
2022/07/24 05:16:32;;;;;;;11.35;10.40;;;;;;;23.97;69.15;96009.44;4896469;29;20203;-84
2022/07/24 05:18:59;;;;;;;11.65;10.55;;;;;;;23.99;69.46;96003.94;4896917;29;20209;-83
2022/07/24 05:21:26;;;;;;;11.40;10.43;;;;;;;24.05;69.24;96003.69;4895705;29;20226;-84
2022/07/24 05:23:53;;;;;;;11.65;10.75;;;;;;;24.10;68.89;96006.38;4896256;29;20324;-84
2022/07/24 05:26:19;;;;;;;11.98;10.77;;;;;;;24.11;68.95;96009.81;4896245;29;20211;-84
2022/07/24 05:28:46;;;;;;;10.93;10.02;;;;;;;24.16;68.96;96009.06;4896178;29;20206;-83
2022/07/24 05:31:12;;;;;;;10.43;9.63;;;;;;;24.23;68.47;96010.44;4897341;29;20226;-84
2022/07/24 05:33:39;;;;;;;12.13;11.13;;;;;;;24.24;68.18;96001.53;4897704;28;20244;-84
2022/07/24 05:36:06;;;;;;;12.25;11.13;;;;;;;24.18;68.56;96005.13;4898049;29;20556;-82
2022/07/24 05:38:34;;;;;;;11.77;10.88;;;;;;;24.25;68.10;95997.84;4898669;29;20226;-83
2022/07/24 05:41:01;;;;;;;11.93;10.93;;;;;;;24.30;67.92;96005.78;4896708;29;20234;-84
2022/07/24 05:43:28;;;;;;;11.30;10.40;;;;;;;24.36;67.72;96007.41;4896717;29;20594;-83
2022/07/24 05:45:55;;;;;;;24.52;13.00;;;;;;;24.44;67.01;96006.91;4898575;29;20199;-83
2022/07/24 05:48:21;;;;;;;12.38;11.18;;;;;;;24.51;66.67;96009.34;4898116;29;20668;-84
2022/07/24 05:50:47;;;;;;;11.80;10.63;;;;;;;24.56;66.45;96012.00;4894563;29;20754;-84
2022/07/24 05:53:14;;;;;;;11.90;10.73;;;;;;;24.58;66.04;96007.28;4894704;29;20234;-84
2022/07/24 05:55:42;;;;;;;12.45;11.23;;;;;;;24.59;66.01;96006.25;4896420;29;20202;-82
2022/07/24 05:58:08;;;;;;;11.27;10.38;;;;;;;24.68;65.71;96006.53;4897085;29;20238;-84
2022/07/24 06:00:34;;;;;;;10.90;9.95;;;;;;;24.67;65.77;96003.13;4897516;29;20591;-81
2022/07/24 06:03:01;;;;;;;10.75;9.75;;;;;;;24.79;65.86;96003.72;4895003;29;20249;-84
2022/07/24 06:05:27;;;;;;;10.55;9.65;;;;;;;24.93;65.01;95998.00;4895355;29;20221;-85
2022/07/24 06:07:54;;;;;;;10.45;9.55;;;;;;;25.05;64.81;95998.59;4897002;29;20210;-84
2022/07/24 06:10:20;;;;;;;10.13;9.32;;;;;;;25.12;63.85;95997.31;4897840;29;20211;-85
2022/07/24 06:12:57;;;;;;;11.25;10.27;;;;;;;25.19;63.13;96002.34;4898049;29;20257;-84
2022/07/24 06:15:24;;;;;;;11.18;10.30;;;;;;;25.26;62.66;96002.09;4898261;29;20209;-84
2022/07/24 06:17:50;;;;;;;11.65;10.75;;;;;;;25.33;63.18;96000.81;4897907;29;20226;-84
2022/07/24 06:20:17;;;;;;;15.25;13.95;;;;;;;25.42;62.47;96001.09;4897731;29;20210;-83
2022/07/24 06:22:47;;;;;;;30.10;27.25;;;;;;;25.48;62.36;95997.41;4898453;29;20887;-84
2022/07/24 06:25:14;;;;;;;14.05;12.68;;;;;;;25.57;62.44;96000.34;4898983;29;20724;-84
2022/07/24 06:27:41;;;;;;;11.93;10.98;;;;;;;25.61;61.21;96004.03;4879486;29;20252;-81
2022/07/24 06:30:26;;;;;;;11.15;10.25;;;;;;;25.58;59.70;96002.72;4895545;29;20203;-87
2022/07/24 06:32:53;;;;;;;12.57;10.27;;;;;;;25.46;60.14;96007.44;4897509;29;20237;-85
2022/07/24 06:35:22;;;;;;;10.70;9.63;;;;;;;25.50;60.61;96000.59;4898022;29;20211;-84
2022/07/24 06:37:49;;;;;;;13.70;9.90;;;;;;;25.59;60.18;96003.53;4896388;29;20237;-84
2022/07/24 06:40:16;;;;;;;10.38;9.50;;;;;;;25.67;60.18;96000.38;4898827;29;20207;-83
2022/07/24 06:42:43;;;;;;;11.20;9.90;;;;;;;25.59;58.62;96006.16;4898651;29;20233;-83
2022/07/24 06:45:11;;;;;;;62.55;22.17;;;;;;;25.60;59.23;96005.88;4899360;29;20317;-84
2022/07/24 06:47:38;;;;;;;37.65;17.13;;;;;;;25.63;58.75;96005.38;4899786;29;20651;-83
2022/07/24 06:50:11;;;;;;;32.33;14.85;;;;;;;25.65;59.13;96005.91;4899188;29;20206;-83
2022/07/24 06:52:37;;;;;;;18.98;12.32;;;;;;;25.78;59.52;96000.16;4899206;29;20238;-83
2022/07/24 06:55:05;;;;;;;19.33;11.68;;;;;;;25.84;58.80;95998.28;4899122;29;20203;-84
2022/07/24 06:57:31;;;;;;;13.60;12.20;;;;;;;25.90;57.85;96007.03;4899702;29;20234;-84
2022/07/24 06:59:58;;;;;;;11.13;9.90;;;;;;;25.94;57.59;96002.81;4898426;29;20560;-83
2022/07/24 07:02:25;;;;;;;11.20;10.23;;;;;;;25.96;58.06;95993.56;4894225;29;20249;-82
2022/07/24 07:04:52;;;;;;;11.35;10.35;;;;;;;26.04;57.98;95998.31;4893897;29;20560;-82
2022/07/24 07:07:21;;;;;;;12.65;11.45;;;;;;;26.04;57.20;96000.94;4897029;29;20668;-82
2022/07/24 07:09:47;;;;;;;10.45;9.55;;;;;;;26.06;56.45;95988.28;4897130;29;20207;-83
2022/07/24 07:12:14;;;;;;;9.75;8.93;;;;;;;25.85;55.87;95991.97;4895989;29;20741;-83
2022/07/24 07:14:40;;;;;;;10.27;9.25;;;;;;;25.70;56.16;95986.69;4895889;29;20238;-83
2022/07/24 07:17:06;;;;;;;10.35;8.85;;;;;;;25.61;56.52;95996.13;4898975;29;20206;-83
2022/07/24 07:19:34;;;;;;;10.00;9.20;;;;;;;25.69;57.12;95999.06;4899369;29;20223;-83
2022/07/24 07:22:01;;;;;;;9.35;8.50;;;;;;;25.80;57.58;96002.50;4899197;29;20227;-83
2022/07/24 07:24:27;;;;;;;9.77;8.50;;;;;;;25.87;56.68;96003.06;4896602;29;20264;-82
2022/07/24 07:26:54;;;;;;;9.38;8.68;;;;;;;25.91;55.16;96006.75;4897274;29;20207;-82
2022/07/24 07:29:20;;;;;;;9.80;9.02;;;;;;;25.96;54.67;96001.50;4897562;29;20199;-83
2022/07/24 07:31:47;;;;;;;9.23;8.25;;;;;;;26.03;54.64;96003.84;4896543;29;20309;-81
2022/07/24 07:34:13;;;;;;;8.70;7.80;;;;;;;26.14;55.02;95997.53;4904500;29;20261;-84
2022/07/24 07:36:41;;;;;;;9.02;8.15;;;;;;;26.35;55.37;95993.84;4902544;29;20199;-82
2022/07/24 07:39:07;;;;;;;9.75;8.95;;;;;;;26.43;53.68;96003.06;4897400;29;20233;-82
2022/07/24 07:41:34;;;;;;;10.50;9.60;;;;;;;26.54;53.13;96001.22;4896989;29;20788;-83
2022/07/24 07:44:01;;;;;;;10.50;9.38;;;;;;;26.61;52.90;96001.72;4896075;29;20231;-83
2022/07/24 07:46:27;;;;;;;9.73;9.02;;;;;;;26.59;51.02;95996.69;4896559;29;20195;-83
2022/07/24 07:48:54;;;;;;;10.02;9.02;;;;;;;26.71;52.56;95999.06;4897108;29;20250;-83
2022/07/24 07:51:21;;;;;;;9.25;8.45;;;;;;;26.70;51.68;96003.56;4896197;29;20242;-82
2022/07/24 07:53:49;;;;;;;9.55;8.82;;;;;;;26.70;50.72;95986.91;4898201;29;20242;-85
2022/07/24 07:56:16;;;;;;;8.75;8.15;;;;;;;26.77;51.80;95993.50;4905282;29;20230;-85
2022/07/24 07:58:42;;;;;;;8.95;8.15;;;;;;;26.83;50.69;95989.78;4889390;29;20599;-84
2022/07/24 08:01:08;;;;;;;9.23;8.32;;;;;;;26.81;49.17;95994.53;4882337;29;20234;-84
2022/07/24 08:03:35;;;;;;;15.55;14.30;;;;;;;26.90;49.86;95996.63;4892607;29;20218;-84
2022/07/24 08:06:03;;;;;;;11.80;10.90;;;;;;;26.96;49.40;95985.78;4903924;29;20203;-83
2022/07/24 08:08:31;;;;;;;9.30;8.40;;;;;;;26.92;48.67;96003.25;4901980;29;20301;-85
2022/07/24 08:10:58;;;;;;;8.65;7.95;;;;;;;26.87;48.41;95991.88;4898543;29;20226;-83
2022/07/24 08:13:26;;;;;;;8.77;8.18;;;;;;;27.02;48.83;95990.00;4904833;29;20235;-83
2022/07/24 08:15:52;;;;;;;8.13;7.43;;;;;;;27.06;47.34;95991.06;4903220;29;20230;-85
2022/07/24 08:18:18;;;;;;;8.27;7.57;;;;;;;27.08;47.67;95993.44;4902368;29;20234;-83
2022/07/24 08:20:45;;;;;;;8.10;7.40;;;;;;;27.20;48.98;95991.25;4894224;29;20233;-84
2022/07/24 08:23:11;;;;;;;7.85;7.05;;;;;;;27.36;46.80;95997.25;4894705;29;20230;-84
2022/07/24 08:25:39;;;;;;;9.32;7.50;;;;;;;27.47;46.85;95999.59;4897129;29;20199;-85
2022/07/24 08:28:07;;;;;;;15.10;13.82;;;;;;;27.65;46.83;95992.13;4897391;29;20238;-84
2022/07/24 08:30:33;;;;;;;9.32;8.52;;;;;;;27.77;45.58;95989.91;4897499;29;20226;-85
2022/07/24 08:33:00;;;;;;;9.02;8.32;;;;;;;27.87;45.18;95991.69;4900399;29;20233;-84
2022/07/24 08:35:26;;;;;;;7.90;7.30;;;;;;;27.90;45.64;95999.09;4906221;29;20214;-83
2022/07/24 08:37:52;;;;;;;8.20;7.57;;;;;;;27.99;45.85;95992.13;4902766;29;20214;-84
2022/07/24 08:40:19;;;;;;;7.57;6.85;;;;;;;28.01;45.83;95997.94;4898021;29;20199;-84
2022/07/24 08:42:46;;;;;;;8.18;6.72;;;;;;;28.07;44.83;95995.00;4897997;29;20244;-84
2022/07/24 08:45:15;;;;;;;7.50;6.90;;;;;;;28.14;44.12;95992.00;4898616;29;20578;-84
2022/07/24 08:47:42;;;;;;;7.70;7.10;;;;;;;28.21;44.46;95992.50;4898887;29;20199;-85
2022/07/24 08:50:10;;;;;;;8.30;7.60;;;;;;;28.29;44.69;95989.25;4899067;29;20210;-84
2022/07/24 08:52:38;;;;;;;7.63;6.97;;;;;;;28.38;44.50;95984.94;4878789;29;20277;-84
2022/07/24 08:55:06;;;;;;;7.72;6.95;;;;;;;28.37;43.52;95982.56;4883358;29;20215;-84
2022/07/24 08:57:32;;;;;;;8.50;7.32;;;;;;;28.24;43.33;95980.56;4883937;29;20563;-83
2022/07/24 08:59:59;;;;;;;7.75;7.18;;;;;;;28.24;44.05;95986.66;4900874;29;20222;-83
2022/07/24 09:02:27;;;;;;;7.97;7.38;;;;;;;28.30;43.82;95988.19;4899556;29;20400;-83
2022/07/24 09:04:59;;;;;;;7.05;6.50;;;;;;;28.37;43.85;95985.22;4900710;29;20229;-84
2022/07/24 09:07:28;;;;;;;8.32;7.25;;;;;;;28.44;43.19;95977.75;4902586;29;20210;-83
2022/07/24 09:09:59;;;;;;;7.55;7.05;;;;;;;28.62;43.17;95982.31;4899661;29;20206;-84
2022/07/24 09:12:26;;;;;;;7.43;6.88;;;;;;;28.84;43.83;95981.88;4898298;29;20230;-84
2022/07/24 09:14:52;;;;;;;7.38;6.78;;;;;;;29.08;43.18;95982.63;4898765;29;20236;-83
2022/07/24 09:17:21;;;;;;;7.68;7.07;;;;;;;29.15;42.71;95974.31;4901398;29;20202;-84
2022/07/24 09:19:51;;;;;;;7.47;6.93;;;;;;;29.20;41.61;95968.97;4901737;29;20237;-83
2022/07/24 09:22:25;;;;;;;7.50;6.82;;;;;;;29.32;42.29;95966.66;4879858;29;20280;-83
2022/07/24 09:25:05;;;;;;;7.85;7.15;;;;;;;29.39;40.75;95972.44;4879215;29;20210;-83
2022/07/24 09:27:32;;;;;;;7.18;6.50;;;;;;;29.39;41.01;95968.97;4878364;29;20815;-84
2022/07/24 09:29:59;;;;;;;7.65;6.95;;;;;;;29.31;40.76;95974.91;4895424;29;20206;-82
2022/07/24 09:32:25;;;;;;;7.20;6.68;;;;;;;29.16;40.66;95970.59;4898599;29;20231;-82
2022/07/24 09:34:54;;;;;;;8.27;7.57;;;;;;;29.16;40.61;95976.69;4897670;29;20198;-83
2022/07/24 09:37:22;;;;;;;7.95;7.35;;;;;;;29.24;40.74;95963.88;4898698;29;20260;-81
2022/07/24 09:39:49;;;;;;;7.50;6.90;;;;;;;29.36;41.08;95964.25;4898332;29;20254;-81
2022/07/24 09:42:17;;;;;;;7.30;6.80;;;;;;;29.47;40.63;95966.47;4899702;29;20231;-82
2022/07/24 09:44:44;;;;;;;6.97;6.47;;;;;;;29.72;40.12;95961.88;4897355;29;20212;-83
2022/07/24 09:47:14;;;;;;;7.22;6.53;;;;;;;29.90;40.02;95969.84;4897030;29;20202;-82
2022/07/24 09:49:41;;;;;;;7.57;6.97;;;;;;;30.14;39.74;95968.97;4897201;29;20671;-82
2022/07/24 09:52:17;;;;;;;7.30;6.70;;;;;;;30.30;39.23;95970.28;4895009;29;20223;-82
2022/07/24 09:54:46;;;;;;;7.53;6.93;;;;;;;30.34;39.33;95976.59;4896178;29;20223;-83
2022/07/24 09:57:23;;;;;;;7.72;7.13;;;;;;;30.09;39.33;95969.03;4897337;29;20206;-82
2022/07/24 09:59:52;;;;;;;7.32;6.75;;;;;;;30.10;40.22;95970.63;4896232;29;20225;-82
2022/07/24 10:02:20;;;;;;;7.80;6.47;;;;;;;30.28;39.10;95961.00;4896009;29;20230;-82
2022/07/24 10:04:49;;;;;;;7.28;6.63;;;;;;;30.51;38.33;95960.06;4896169;29;20210;-83
2022/07/24 10:07:18;;;;;;;7.22;6.63;;;;;;;30.72;38.72;95963.97;4897538;29;20206;-82
2022/07/24 10:09:47;;;;;;;7.20;6.70;;;;;;;30.90;37.94;95949.78;4897530;29;20678;-83
2022/07/24 10:12:17;;;;;;;7.43;6.80;;;;;;;30.88;37.49;95959.13;4895942;29;20234;-82
2022/07/24 10:14:46;;;;;;;6.95;6.45;;;;;;;30.90;37.77;95955.09;4896404;29;20223;-83
2022/07/24 10:17:14;;;;;;;7.30;6.80;;;;;;;30.91;38.23;95954.00;4898782;29;20206;-83
2022/07/24 10:19:45;;;;;;;7.30;6.70;;;;;;;31.00;37.47;95954.09;4899686;29;20226;-83
2022/07/24 10:22:14;;;;;;;7.70;7.10;;;;;;;31.12;37.03;95956.28;4898238;29;20230;-84
2022/07/24 10:25:00;;;;;;;6.82;6.32;;;;;;;31.00;36.84;95943.44;4896898;29;20238;-83
2022/07/24 10:27:29;;;;;;;7.88;7.15;;;;;;;30.87;36.91;95947.69;4897697;29;20283;-83
2022/07/24 10:29:58;;;;;;;7.88;6.85;;;;;;;30.82;36.84;95942.47;4897943;29;20207;-83
2022/07/24 10:32:25;;;;;;;7.43;6.82;;;;;;;30.97;37.20;95940.63;4897733;29;20221;-83
2022/07/24 10:35:03;;;;;;;7.03;6.53;;;;;;;31.18;36.53;95934.59;4899356;29;20211;-83
2022/07/24 10:37:39;;;;;;;7.35;6.60;;;;;;;31.24;36.02;95940.59;4901723;29;20203;-82
2022/07/24 10:40:17;;;;;;;7.70;6.60;;;;;;;31.21;36.01;95933.19;4900175;29;20339;-84
2022/07/24 10:43:10;;;;;;;7.03;6.53;;;;;;;31.30;35.89;95933.28;4900226;28;20749;-83
2022/07/24 10:45:38;;;;;;;7.50;6.97;;;;;;;31.38;36.06;95921.91;4899625;29;20207;-84
2022/07/24 10:48:30;;;;;;;7.70;6.93;;;;;;;31.30;35.78;95925.31;4902714;29;20202;-83
2022/07/24 10:51:11;;;;;;;7.88;7.13;;;;;;;30.94;36.45;95920.72;4899480;29;20218;-83
2022/07/24 10:53:48;;;;;;;7.28;6.75;;;;;;;31.07;37.25;95922.56;4899056;29;20241;-83
2022/07/24 10:56:22;;;;;;;7.60;7.00;;;;;;;31.27;36.91;95921.38;4898544;29;20202;-83
2022/07/24 10:58:57;;;;;;;6.95;6.45;;;;;;;31.53;36.73;95916.28;4903476;29;20227;-83
2022/07/24 11:01:32;;;;;;;7.07;6.57;;;;;;;31.76;36.14;95917.06;4904128;29;20230;-82
2022/07/24 11:03:59;;;;;;;8.75;7.00;;;;;;;31.89;35.83;95921.56;4905830;29;20248;-83
2022/07/24 11:06:41;;;;;;;7.15;6.65;;;;;;;31.70;35.39;95919.09;4902437;29;20207;-83
2022/07/24 11:09:07;;;;;;;7.25;6.70;;;;;;;31.55;35.09;95916.75;4909769;29;20218;-83
2022/07/24 11:11:41;;;;;;;7.30;6.70;;;;;;;31.59;35.01;95923.81;4903591;29;20238;-82
2022/07/24 11:14:07;;;;;;;7.15;6.55;;;;;;;31.76;35.26;95915.19;4904817;29;20264;-83
2022/07/24 11:16:35;;;;;;;8.02;7.03;;;;;;;31.73;34.86;95912.38;4905446;29;20207;-82
2022/07/24 11:19:28;;;;;;;7.43;6.93;;;;;;;31.84;34.80;95911.03;4904309;29;20226;-84
2022/07/24 11:22:09;;;;;;;7.50;6.80;;;;;;;31.88;34.81;95912.00;4903905;29;20754;-83
2022/07/24 11:24:41;;;;;;;7.00;6.50;;;;;;;31.72;34.64;95908.13;4903992;29;20255;-83
2022/07/24 11:27:18;;;;;;;7.88;6.97;;;;;;;31.24;35.60;95898.81;4905746;29;20266;-82
2022/07/24 11:29:45;;;;;;;7.53;6.90;;;;;;;31.07;35.51;95897.81;4887168;29;20267;-80
2022/07/24 11:32:17;;;;;;;11.07;7.72;;;;;;;30.87;35.80;95902.50;4880414;29;20844;-80